createdAt,value
2023-02-14T00:01:26.659Z,4.81
2023-02-14T00:03:54.913Z,4.60
2023-02-14T00:06:22.844Z,4.34
2023-02-14T00:08:52.447Z,4.43
2023-02-14T00:11:20.714Z,4.47
2023-02-14T00:14:07.511Z,4.51
2023-02-14T00:16:36.543Z,4.49
2023-02-14T00:19:05.471Z,4.50
2023-02-14T00:21:35.978Z,4.52
2023-02-14T00:24:07.907Z,4.45
2023-02-14T00:26:38.723Z,4.34
2023-02-14T00:29:07.455Z,4.24
2023-02-14T00:31:35.526Z,4.20
2023-02-14T00:34:04.098Z,4.13
2023-02-14T00:36:33.632Z,4.00
2023-02-14T00:39:06.862Z,3.95
2023-02-14T00:41:35.172Z,3.97
2023-02-14T00:44:02.769Z,4.07
2023-02-14T00:46:30.780Z,4.16
2023-02-14T00:48:59.069Z,4.15
2023-02-14T00:51:27.639Z,4.18
2023-02-14T00:53:55.454Z,4.10
2023-02-14T00:56:23.719Z,4.06
2023-02-14T00:58:51.932Z,4.01
2023-02-14T01:01:20.052Z,4.05
2023-02-14T01:03:49.874Z,4.01
2023-02-14T01:06:17.881Z,3.93
2023-02-14T01:08:46.490Z,3.89
2023-02-14T01:11:24.363Z,3.91
2023-02-14T01:13:52.616Z,3.88
2023-02-14T01:16:20.808Z,3.92
2023-02-14T01:18:48.136Z,4.00
2023-02-14T01:21:28.066Z,4.09
2023-02-14T01:23:59.926Z,4.08
2023-02-14T01:26:27.586Z,4.06
2023-02-14T01:29:01.184Z,3.94
2023-02-14T01:31:30.414Z,3.78
2023-02-14T01:33:58.487Z,3.65
2023-02-14T01:36:52.304Z,3.81
2023-02-14T01:39:20.638Z,3.96
2023-02-14T01:41:49.124Z,3.98
2023-02-14T01:44:16.202Z,3.95
2023-02-14T01:46:45.141Z,3.83
2023-02-14T01:49:11.838Z,3.77
2023-02-14T01:51:40.570Z,3.77
2023-02-14T01:54:08.476Z,3.81
2023-02-14T01:56:39.215Z,3.86
2023-02-14T01:59:07.735Z,3.91
2023-02-14T02:01:35.581Z,3.92
2023-02-14T02:04:15.238Z,3.97
2023-02-14T02:06:48.421Z,4.01
2023-02-14T02:09:34.207Z,4.05
2023-02-14T02:12:02.424Z,4.09
2023-02-14T02:14:31.800Z,4.09
2023-02-14T02:17:21.071Z,4.01
2023-02-14T02:20:13.002Z,3.89
2023-02-14T02:23:13.910Z,3.78
2023-02-14T02:25:53.071Z,3.76
2023-02-14T02:28:45.474Z,3.67
2023-02-14T02:31:28.135Z,3.57
2023-02-14T02:34:04.624Z,3.63
2023-02-14T02:37:18.585Z,3.67
2023-02-14T02:40:10.292Z,3.66
2023-02-14T02:42:53.706Z,3.69
2023-02-14T02:45:34.520Z,3.76
2023-02-14T02:48:11.355Z,3.71
2023-02-14T02:51:04.735Z,3.65
2023-02-14T02:54:25.761Z,3.62
2023-02-14T02:56:58.633Z,3.63
2023-02-14T02:59:28.884Z,3.64
2023-02-14T03:02:02.505Z,3.64
2023-02-14T03:04:47.533Z,3.69
2023-02-14T03:07:34.022Z,3.67
2023-02-14T03:10:14.406Z,3.68
2023-02-14T03:12:59.390Z,3.67
2023-02-14T03:15:37.579Z,3.63
2023-02-14T03:19:00.677Z,3.58
2023-02-14T03:21:43.047Z,3.54
2023-02-14T03:24:30.742Z,3.45
2023-02-14T03:27:08.612Z,3.38
2023-02-14T03:29:47.793Z,3.40
2023-02-14T03:32:20.207Z,3.34
2023-02-14T03:35:18.180Z,3.28
2023-02-14T03:38:33.068Z,3.28
2023-02-14T03:41:02.715Z,3.31
2023-02-14T03:43:35.300Z,3.36
2023-02-14T03:46:14.791Z,3.35
2023-02-14T03:48:41.879Z,3.34
2023-02-14T03:51:11.484Z,3.30
2023-02-14T03:53:40.247Z,3.30
2023-02-14T03:56:23.466Z,3.29
2023-02-14T03:58:52.169Z,3.23
2023-02-14T04:01:24.872Z,3.21
2023-02-14T04:03:53.233Z,3.13
2023-02-14T04:06:22.931Z,3.18
2023-02-14T04:08:51.362Z,3.20
2023-02-14T04:11:19.549Z,3.14
2023-02-14T04:13:47.617Z,3.18
2023-02-14T04:16:15.704Z,3.04
2023-02-14T04:19:02.225Z,2.98
2023-02-14T04:21:30.494Z,2.95
2023-02-14T04:23:58.596Z,2.91
2023-02-14T04:26:27.396Z,2.85
2023-02-14T04:28:55.136Z,2.79
2023-02-14T04:31:22.939Z,2.76
2023-02-14T04:33:51.437Z,2.79
2023-02-14T04:36:19.064Z,2.83
2023-02-14T04:38:47.341Z,2.83
2023-02-14T04:41:15.344Z,2.80
2023-02-14T04:43:43.135Z,2.82
2023-02-14T04:46:11.412Z,2.84
2023-02-14T04:48:39.612Z,2.89
2023-02-14T04:51:07.217Z,2.89
2023-02-14T04:53:40.274Z,2.88
2023-02-14T04:56:08.464Z,2.84
2023-02-14T04:58:36.192Z,2.76
2023-02-14T05:01:04.618Z,2.73
2023-02-14T05:03:32.969Z,2.73
2023-02-14T05:06:01.266Z,2.66
2023-02-14T05:08:28.811Z,2.63
2023-02-14T05:10:57.562Z,2.60
2023-02-14T05:13:25.844Z,2.59
2023-02-14T05:15:53.985Z,2.58
2023-02-14T05:18:21.969Z,2.58
2023-02-14T05:20:52.403Z,2.59
2023-02-14T05:23:20.546Z,2.61
2023-02-14T05:25:51.145Z,2.56
2023-02-14T05:28:20.599Z,2.52
2023-02-14T05:30:48.308Z,2.38
2023-02-14T05:33:16.623Z,2.28
2023-02-14T05:35:45.284Z,2.13
2023-02-14T05:38:13.938Z,2.13
2023-02-14T05:40:42.215Z,2.17
2023-02-14T05:43:09.949Z,2.24
2023-02-14T05:45:38.432Z,2.30
2023-02-14T05:48:06.599Z,2.29
2023-02-14T05:50:34.122Z,2.30
2023-02-14T05:53:02.163Z,2.33
2023-02-14T05:55:30.389Z,2.31
2023-02-14T05:57:58.882Z,2.30
2023-02-14T06:00:27.494Z,2.29
2023-02-14T06:02:55.627Z,2.19
2023-02-14T06:05:23.666Z,2.05
2023-02-14T06:07:50.960Z,1.99
2023-02-14T06:10:20.309Z,1.86
2023-02-14T06:12:49.097Z,1.59
2023-02-14T06:15:17.765Z,1.47
2023-02-14T06:17:46.339Z,1.40
2023-02-14T06:20:14.600Z,1.37
2023-02-14T06:22:43.215Z,1.40
2023-02-14T06:25:11.652Z,1.40
2023-02-14T06:27:39.688Z,1.47
2023-02-14T06:30:11.675Z,1.51
2023-02-14T06:32:40.071Z,1.53
2023-02-14T06:35:07.934Z,1.58
2023-02-14T06:37:35.688Z,1.59
2023-02-14T06:40:04.468Z,1.59
2023-02-14T06:42:32.162Z,1.60
2023-02-14T06:45:01.259Z,1.72
2023-02-14T06:47:29.940Z,1.83
2023-02-14T06:50:00.081Z,1.95
2023-02-14T06:52:27.925Z,2.04
2023-02-14T06:54:56.471Z,2.15
2023-02-14T06:57:24.506Z,2.22
2023-02-14T06:59:52.539Z,2.24
2023-02-14T07:02:24.689Z,2.32
2023-02-14T07:04:53.308Z,2.40
2023-02-14T07:07:21.349Z,2.38
2023-02-14T07:09:51.067Z,2.42
2023-02-14T07:12:19.370Z,2.45
2023-02-14T07:14:47.524Z,2.42
2023-02-14T07:17:16.032Z,2.42
2023-02-14T07:19:44.796Z,2.46
2023-02-14T07:22:13.150Z,2.59
2023-02-14T07:24:40.908Z,2.71
2023-02-14T07:27:08.977Z,2.81
2023-02-14T07:29:37.859Z,2.89
2023-02-14T07:32:06.952Z,2.91
2023-02-14T07:34:35.109Z,2.98
2023-02-14T07:37:02.383Z,3.02
2023-02-14T07:39:31.309Z,3.04
2023-02-14T07:41:58.904Z,3.10
2023-02-14T07:44:27.024Z,3.23
2023-02-14T07:46:54.912Z,3.30
2023-02-14T07:49:24.296Z,3.36
2023-02-14T07:51:52.360Z,3.44
2023-02-14T07:54:21.237Z,3.59
2023-02-14T07:56:49.660Z,3.69
2023-02-14T07:59:17.489Z,3.89
2023-02-14T08:01:44.783Z,4.01
2023-02-14T08:04:14.029Z,4.09
2023-02-14T08:06:42.432Z,4.18
2023-02-14T08:09:24.789Z,4.31
2023-02-14T08:12:14.694Z,4.44
2023-02-14T08:14:42.239Z,4.59
2023-02-14T08:17:13.951Z,4.74
2023-02-14T08:19:42.244Z,4.86
2023-02-14T08:22:10.211Z,4.94
2023-02-14T08:24:38.974Z,5.05
2023-02-14T08:27:07.441Z,5.06
2023-02-14T08:29:35.676Z,5.07
2023-02-14T08:32:03.985Z,5.12
2023-02-14T08:34:32.205Z,5.18
2023-02-14T08:37:01.008Z,5.23
2023-02-14T08:39:28.671Z,5.27
2023-02-14T08:41:57.063Z,5.31
2023-02-14T08:44:25.131Z,5.35
2023-02-14T08:46:53.750Z,5.42
2023-02-14T08:49:21.991Z,5.52
2023-02-14T08:51:50.568Z,5.59
2023-02-14T08:54:18.710Z,5.69
2023-02-14T08:56:46.749Z,5.81
2023-02-14T08:59:14.953Z,5.97
2023-02-14T09:01:43.296Z,6.12
2023-02-14T09:04:11.425Z,6.26
2023-02-14T09:06:40.086Z,6.30
2023-02-14T09:09:07.664Z,6.45
2023-02-14T09:11:35.581Z,6.49
2023-02-14T09:14:04.957Z,6.66
2023-02-14T09:16:32.524Z,6.77
2023-02-14T09:19:00.359Z,6.92
2023-02-14T09:21:28.068Z,7.07
2023-02-14T09:23:55.933Z,7.21
2023-02-14T09:26:23.919Z,7.31
2023-02-14T09:28:52.199Z,7.43
2023-02-14T09:31:22.281Z,7.57
2023-02-14T09:33:50.459Z,7.65
2023-02-14T09:36:35.808Z,7.81
2023-02-14T09:39:07.183Z,8.02
2023-02-14T09:42:07.313Z,8.21
2023-02-14T09:44:41.077Z,8.39
2023-02-14T09:47:34.932Z,8.58
2023-02-14T09:50:06.131Z,8.72
2023-02-14T09:52:33.363Z,8.98
2023-02-14T09:55:01.516Z,9.12
2023-02-14T09:57:53.361Z,9.34
2023-02-14T10:00:43.687Z,9.52
2023-02-14T10:03:18.213Z,9.63
2023-02-14T10:06:12.662Z,9.77
2023-02-14T10:08:49.563Z,9.90
2023-02-14T10:11:20.519Z,10.08
2023-02-14T10:14:10.554Z,10.28
2023-02-14T10:16:53.756Z,10.42
2023-02-14T10:19:39.213Z,10.59
2023-02-14T10:22:17.553Z,10.75
2023-02-14T10:25:24.352Z,10.91
2023-02-14T10:27:52.851Z,11.08
2023-02-14T10:30:22.253Z,11.16
2023-02-14T10:33:06.441Z,11.21
2023-02-14T10:35:45.481Z,11.35
2023-02-14T10:38:50.212Z,11.41
2023-02-14T10:41:53.347Z,11.59
2023-02-14T10:44:42.092Z,11.76
2023-02-14T10:47:47.028Z,11.76
2023-02-14T10:50:35.664Z,12.05
2023-02-14T10:53:17.159Z,12.17
2023-02-14T10:56:06.520Z,12.28
2023-02-14T10:58:37.773Z,12.50
2023-02-14T11:01:16.305Z,12.58
2023-02-14T11:03:56.165Z,12.72
2023-02-14T11:06:24.297Z,12.88
2023-02-14T11:08:51.982Z,12.99
2023-02-14T11:11:31.295Z,13.16
2023-02-14T11:13:59.044Z,13.35
2023-02-14T11:16:31.427Z,13.48
2023-02-14T11:19:25.990Z,13.75
2023-02-14T11:21:54.716Z,13.74
2023-02-14T11:24:31.891Z,14.03
2023-02-14T11:27:07.450Z,14.24
2023-02-14T11:29:45.053Z,14.38
2023-02-14T11:32:16.565Z,14.53
2023-02-14T11:34:59.808Z,14.57
2023-02-14T11:37:34.085Z,14.68
2023-02-14T11:40:01.486Z,14.92
2023-02-14T11:42:34.181Z,14.75
2023-02-14T11:45:02.112Z,14.95
2023-02-14T11:47:30.746Z,15.00
2023-02-14T11:50:02.270Z,15.18
2023-02-14T11:52:29.964Z,15.35
2023-02-14T11:54:57.660Z,15.56
2023-02-14T11:57:33.873Z,15.89
2023-02-14T12:00:01.835Z,15.97
2023-02-14T12:02:33.659Z,16.16
2023-02-14T12:05:06.025Z,16.36
2023-02-14T12:07:36.580Z,16.38
2023-02-14T12:10:18.900Z,16.64
2023-02-14T12:12:51.782Z,16.72
2023-02-14T12:15:23.520Z,16.91
2023-02-14T12:17:53.278Z,17.39
2023-02-14T12:20:27.133Z,17.78
2023-02-14T12:23:13.761Z,18.11
2023-02-14T12:25:44.545Z,18.41
2023-02-14T12:28:14.199Z,18.73
2023-02-14T12:30:41.915Z,18.85
2023-02-14T12:33:35.378Z,19.01
2023-02-14T12:36:44.194Z,19.03
2023-02-14T12:39:29.369Z,19.18
2023-02-14T12:42:02.895Z,19.09
2023-02-14T12:44:42.587Z,18.87
2023-02-14T12:47:14.211Z,19.19
2023-02-14T12:49:49.739Z,19.37
2023-02-14T12:52:33.353Z,19.44
2023-02-14T12:55:24.141Z,19.68
2023-02-14T12:58:12.729Z,19.86
2023-02-14T13:00:44.426Z,19.88
2023-02-14T13:03:26.677Z,19.87
2023-02-14T13:06:16.023Z,20.00
2023-02-14T13:08:49.289Z,20.12
2023-02-14T13:11:22.408Z,20.10
2023-02-14T13:14:04.489Z,20.45
2023-02-14T13:16:39.691Z,20.22
2023-02-14T13:19:22.035Z,20.61
2023-02-14T13:21:49.919Z,20.56
2023-02-14T13:24:28.704Z,20.73
2023-02-14T13:26:57.469Z,20.84
2023-02-14T13:29:25.361Z,20.89
2023-02-14T13:31:58.839Z,20.63
2023-02-14T13:34:33.277Z,20.83
2023-02-14T13:37:00.811Z,20.74
2023-02-14T13:39:38.476Z,21.01
2023-02-14T13:42:07.166Z,20.94
2023-02-14T13:44:48.978Z,21.17
2023-02-14T13:47:26.081Z,20.99
2023-02-14T13:50:00.796Z,21.39
2023-02-14T13:52:44.021Z,21.59
2023-02-14T13:55:46.228Z,21.29
2023-02-14T13:58:21.834Z,21.65
2023-02-14T14:00:49.649Z,21.65
2023-02-14T14:03:28.934Z,21.58
2023-02-14T14:06:09.884Z,21.66
2023-02-14T14:08:42.650Z,21.68
2023-02-14T14:11:22.904Z,21.61
2023-02-14T14:13:59.746Z,21.73
2023-02-14T14:16:33.641Z,21.35
2023-02-14T14:19:10.192Z,21.06
2023-02-14T14:21:37.742Z,20.81
2023-02-14T14:24:26.936Z,20.29
2023-02-14T14:27:08.288Z,20.28
2023-02-14T14:29:45.296Z,19.91
2023-02-14T14:32:18.354Z,19.70
2023-02-14T14:34:52.554Z,19.55
2023-02-14T14:37:21.932Z,19.57
2023-02-14T14:39:53.763Z,19.54
2023-02-14T14:42:21.469Z,19.63
2023-02-14T14:45:00.032Z,19.71
2023-02-14T14:47:30.778Z,19.70
2023-02-14T14:50:04.717Z,19.55
2023-02-14T14:52:39.450Z,19.79
2023-02-14T14:55:08.493Z,19.67
2023-02-14T14:57:39.718Z,19.85
2023-02-14T15:00:18.648Z,20.14
2023-02-14T15:03:00.611Z,20.23
2023-02-14T15:05:55.907Z,20.77
2023-02-14T15:08:25.588Z,21.44
2023-02-14T15:10:55.691Z,21.53
2023-02-14T15:13:50.760Z,21.44
2023-02-14T15:16:21.558Z,21.44
2023-02-14T15:18:49.548Z,21.02
2023-02-14T15:21:16.475Z,20.69
2023-02-14T15:23:44.206Z,20.57
2023-02-14T15:26:17.103Z,20.38
2023-02-14T15:28:44.655Z,19.89
2023-02-14T15:31:11.859Z,19.62
2023-02-14T15:33:39.631Z,19.17
2023-02-14T15:36:08.677Z,18.84
2023-02-14T15:38:36.684Z,18.38
2023-02-14T15:41:04.676Z,18.05
2023-02-14T15:43:33.015Z,18.01
2023-02-14T15:46:21.310Z,18.19
2023-02-14T15:48:49.335Z,18.53
2023-02-14T15:51:26.307Z,18.69
2023-02-14T15:53:58.865Z,18.85
2023-02-14T15:56:44.828Z,19.29
2023-02-14T15:59:20.991Z,19.63
2023-02-14T16:02:05.960Z,20.00
2023-02-14T16:04:36.148Z,20.11
2023-02-14T16:07:06.881Z,19.88
2023-02-14T16:09:35.464Z,19.96
2023-02-14T16:12:31.754Z,20.12
2023-02-14T16:15:17.514Z,19.93
2023-02-14T16:17:45.931Z,19.52
2023-02-14T16:20:43.720Z,18.84
2023-02-14T16:23:19.838Z,17.88
2023-02-14T16:25:47.024Z,17.04
2023-02-14T16:28:14.953Z,16.47
2023-02-14T16:30:42.688Z,15.98
2023-02-14T16:33:22.202Z,15.54
2023-02-14T16:35:49.335Z,15.21
2023-02-14T16:38:17.722Z,14.85
2023-02-14T16:40:46.819Z,14.66
2023-02-14T16:43:18.612Z,14.48
2023-02-14T16:45:45.699Z,14.35
2023-02-14T16:48:15.794Z,14.20
2023-02-14T16:50:42.549Z,14.08
2023-02-14T16:53:22.677Z,13.91
2023-02-14T16:55:50.801Z,13.72
2023-02-14T16:58:19.562Z,13.52
2023-02-14T17:00:50.503Z,13.39
2023-02-14T17:03:18.184Z,13.32
2023-02-14T17:05:45.647Z,13.25
2023-02-14T17:08:13.216Z,13.13
2023-02-14T17:10:40.330Z,12.97
2023-02-14T17:13:07.465Z,12.87
2023-02-14T17:15:35.480Z,12.80
2023-02-14T17:18:09.044Z,12.77
2023-02-14T17:20:37.115Z,12.75
2023-02-14T17:23:04.974Z,12.78
2023-02-14T17:25:32.119Z,12.69
2023-02-14T17:28:03.142Z,12.58
2023-02-14T17:30:31.031Z,12.50
2023-02-14T17:32:58.649Z,12.51
2023-02-14T17:35:26.731Z,12.48
2023-02-14T17:37:54.511Z,12.47
2023-02-14T17:40:22.931Z,12.45
2023-02-14T17:42:51.209Z,12.38
2023-02-14T17:45:18.992Z,12.31
2023-02-14T17:47:46.553Z,12.29
2023-02-14T17:50:14.768Z,12.17
2023-02-14T17:52:42.849Z,12.12
2023-02-14T17:55:16.466Z,12.01
2023-02-14T17:57:43.948Z,11.93
2023-02-14T18:00:16.443Z,11.86
2023-02-14T18:02:45.931Z,11.77
2023-02-14T18:05:13.390Z,11.75
2023-02-14T18:07:41.041Z,11.71
2023-02-14T18:10:09.911Z,11.68
2023-02-14T18:12:38.002Z,11.67
2023-02-14T18:15:06.833Z,11.66
2023-02-14T18:17:34.495Z,11.59
2023-02-14T18:20:03.236Z,11.53
2023-02-14T18:22:30.569Z,11.41
2023-02-14T18:24:58.875Z,11.27
2023-02-14T18:27:26.649Z,11.09
2023-02-14T18:29:54.394Z,10.95
2023-02-14T18:32:22.368Z,10.84
2023-02-14T18:34:51.156Z,10.80
2023-02-14T18:37:19.242Z,10.70
2023-02-14T18:39:47.456Z,10.67
2023-02-14T18:42:15.459Z,10.64
2023-02-14T18:44:43.058Z,10.58
2023-02-14T18:47:11.083Z,10.53
2023-02-14T18:49:39.417Z,10.44
2023-02-14T18:52:07.425Z,10.41
2023-02-14T18:54:35.351Z,10.39
2023-02-14T18:57:07.064Z,10.35
2023-02-14T18:59:35.240Z,10.30
2023-02-14T19:02:03.328Z,10.27
2023-02-14T19:04:30.976Z,10.25
2023-02-14T19:06:58.654Z,10.25
2023-02-14T19:09:27.534Z,10.24
2023-02-14T19:12:00.035Z,10.21
2023-02-14T19:14:27.944Z,10.15
2023-02-14T19:16:55.552Z,10.08
2023-02-14T19:19:24.180Z,9.95
2023-02-14T19:21:52.110Z,9.80
2023-02-14T19:24:19.974Z,9.77
2023-02-14T19:26:48.326Z,9.78
2023-02-14T19:29:17.239Z,9.72
2023-02-14T19:31:45.867Z,9.72
2023-02-14T19:34:20.216Z,9.71
2023-02-14T19:36:48.027Z,9.69
2023-02-14T19:39:15.710Z,9.59
2023-02-14T19:41:44.604Z,9.45
2023-02-14T19:44:13.918Z,9.37
2023-02-14T19:46:42.516Z,9.31
2023-02-14T19:49:12.049Z,9.28
2023-02-14T19:51:40.032Z,9.27
2023-02-14T19:54:09.723Z,9.30
2023-02-14T19:56:37.948Z,9.27
2023-02-14T19:59:14.428Z,9.23
2023-02-14T20:01:48.520Z,9.24
2023-02-14T20:04:17.796Z,9.26
2023-02-14T20:06:47.092Z,9.20
2023-02-14T20:09:15.628Z,9.17
2023-02-14T20:11:51.570Z,9.19
2023-02-14T20:14:27.219Z,9.20
2023-02-14T20:16:55.793Z,9.19
2023-02-14T20:19:29.520Z,9.16
2023-02-14T20:21:58.184Z,9.14
2023-02-14T20:24:27.885Z,9.08
2023-02-14T20:26:55.525Z,9.10
2023-02-14T20:29:23.966Z,9.06
2023-02-14T20:31:53.489Z,9.01
2023-02-14T20:34:21.572Z,8.89
2023-02-14T20:36:56.179Z,8.80
2023-02-14T20:39:27.018Z,8.74
2023-02-14T20:41:54.668Z,8.69
2023-02-14T20:44:22.615Z,8.70
2023-02-14T20:46:51.694Z,8.70
2023-02-14T20:49:20.894Z,8.67
2023-02-14T20:51:51.677Z,8.60
2023-02-14T20:54:19.557Z,8.57
2023-02-14T20:56:47.577Z,8.58
2023-02-14T20:59:16.206Z,8.43
2023-02-14T21:01:44.480Z,8.26
2023-02-14T21:04:14.094Z,8.15
2023-02-14T21:06:42.162Z,8.11
2023-02-14T21:09:09.745Z,8.13
2023-02-14T21:11:39.026Z,8.08
2023-02-14T21:14:08.080Z,8.02
2023-02-14T21:16:36.493Z,7.91
2023-02-14T21:19:05.994Z,7.88
2023-02-14T21:21:36.463Z,7.85
2023-02-14T21:24:24.434Z,7.77
2023-02-14T21:26:52.905Z,7.73
2023-02-14T21:29:21.082Z,7.75
2023-02-14T21:31:50.776Z,7.78
2023-02-14T21:34:19.003Z,7.74
2023-02-14T21:36:48.097Z,7.73
2023-02-14T21:39:16.829Z,7.80
2023-02-14T21:41:44.723Z,7.82
2023-02-14T21:44:32.731Z,7.81
2023-02-14T21:47:00.935Z,7.82
2023-02-14T21:49:47.352Z,7.79
2023-02-14T21:52:15.200Z,7.72
2023-02-14T21:54:43.606Z,7.73
2023-02-14T21:57:11.131Z,7.76
2023-02-14T21:59:40.510Z,7.75
2023-02-14T22:02:09.018Z,7.74
2023-02-14T22:04:36.659Z,7.70
2023-02-14T22:07:04.712Z,7.70
2023-02-14T22:09:33.153Z,7.71
2023-02-14T22:12:01.316Z,7.66
2023-02-14T22:14:29.347Z,7.46
2023-02-14T22:16:57.812Z,7.35
2023-02-14T22:19:26.557Z,7.36
2023-02-14T22:21:54.351Z,7.35
2023-02-14T22:24:22.569Z,7.30
2023-02-14T22:26:50.865Z,7.14
2023-02-14T22:29:19.678Z,7.11
2023-02-14T22:31:48.220Z,7.09
2023-02-14T22:34:19.593Z,7.04
2023-02-14T22:36:47.263Z,6.82
2023-02-14T22:39:16.064Z,6.51
2023-02-14T22:41:44.200Z,6.24
2023-02-14T22:44:17.211Z,6.12
2023-02-14T22:46:48.563Z,6.02
2023-02-14T22:49:17.524Z,5.88
2023-02-14T22:51:44.655Z,5.81
2023-02-14T22:54:13.782Z,5.75
2023-02-14T22:56:48.113Z,5.80
2023-02-14T22:59:18.505Z,5.84
2023-02-14T23:01:46.436Z,5.92
2023-02-14T23:04:14.276Z,5.96
2023-02-14T23:06:42.013Z,5.97
2023-02-14T23:09:10.203Z,6.04
2023-02-14T23:11:37.920Z,6.02
2023-02-14T23:14:24.252Z,6.05
2023-02-14T23:17:10.250Z,6.01
2023-02-14T23:19:58.636Z,5.96
2023-02-14T23:22:38.002Z,5.90
2023-02-14T23:25:10.710Z,5.86
2023-02-14T23:27:47.659Z,5.73
2023-02-14T23:30:18.437Z,5.70
2023-02-14T23:32:46.833Z,5.70
2023-02-14T23:35:16.170Z,5.75
2023-02-14T23:37:44.736Z,5.71
2023-02-14T23:40:13.720Z,5.62
2023-02-14T23:42:42.120Z,5.58
2023-02-14T23:45:28.436Z,5.51
2023-02-14T23:47:56.528Z,5.51
2023-02-14T23:50:25.187Z,5.56
2023-02-14T23:52:53.234Z,5.45
2023-02-14T23:55:21.260Z,5.45
2023-02-14T23:57:49.523Z,5.36
